Time;durP1;ratioP1;P1;durP2;ratioP2;P2;SDS_P1;SDS_P2;PMS_P1;PMS_P2;Temp;Humidity;BMP_temperature;BMP_pressure;BME280_temperature;BME280_humidity;BME280_pressure;Samples;Min_cycle;Max_cycle;Signal;HPM_P1;HPM_P2
2021/12/08 00:00:43;;;;;;;38.10;17.48;;;;;;;-1.63;90.15;97579.06;2566840;28;20528;-71
2021/12/08 00:01:59;;;;;;;38.08;16.77;;;;;;;-1.64;90.20;97567.09;2567278;28;20523;-74
2021/12/08 00:03:15;;;;;;;36.20;17.55;;;;;;;-1.62;90.40;97573.09;2567699;28;20102;-71
2021/12/08 00:04:30;;;;;;;37.72;18.45;;;;;;;-1.63;90.42;97568.81;2567421;28;20051;-70
2021/12/08 00:05:46;;;;;;;39.25;18.40;;;;;;;-1.61;90.26;97576.50;2567119;28;20050;-71
2021/12/08 00:07:04;;;;;;;33.33;16.13;;;;;;;-1.59;90.29;97573.09;2567389;28;20051;-71
2021/12/08 00:08:22;;;;;;;36.72;16.58;;;;;;;-1.59;90.75;97567.97;2566896;28;20059;-71
2021/12/08 00:14:07;;;;;;;130.77;31.33;;;;;;;-1.41;89.67;97563.78;2567398;28;20055;-71
2021/12/08 00:15:23;;;;;;;115.38;34.80;;;;;;;-1.53;89.38;97561.19;2567179;28;20046;-71
2021/12/08 00:16:39;;;;;;;85.60;32.97;;;;;;;-1.67;89.13;97556.81;2567128;28;20051;-71
2021/12/08 00:17:56;;;;;;;70.53;29.45;;;;;;;-1.77;89.15;97560.16;2567099;28;20607;-70
2021/12/08 00:19:12;;;;;;;109.03;33.97;;;;;;;-1.83;89.21;97560.09;2567106;28;20489;-71
2021/12/08 00:20:31;;;;;;;76.13;29.45;;;;;;;-1.90;89.25;97562.63;2566998;28;20105;-71
2021/12/08 00:21:46;;;;;;;80.43;30.75;;;;;;;-1.96;89.14;97556.59;2567312;28;20053;-71
2021/12/08 00:23:05;;;;;;;94.03;32.13;;;;;;;-2.06;89.04;97553.09;2567268;28;20418;-71
2021/12/08 00:24:21;;;;;;;122.63;33.28;;;;;;;-2.13;89.43;97558.16;2567050;28;20702;-71
2021/12/08 00:25:37;;;;;;;165.32;33.70;;;;;;;-2.19;89.50;97560.69;2567153;28;20046;-71
2021/12/08 00:26:54;;;;;;;129.18;30.80;;;;;;;-2.26;89.73;97561.47;2567017;28;20524;-70
2021/12/08 00:28:11;;;;;;;104.85;31.05;;;;;;;-2.30;89.95;97567.44;2567200;28;20047;-71
2021/12/08 00:29:27;;;;;;;92.05;30.45;;;;;;;-2.34;90.19;97568.25;2567075;28;20505;-71
2021/12/08 00:30:48;;;;;;;79.60;30.25;;;;;;;-2.34;90.04;97566.53;2567143;28;20057;-71
2021/12/08 00:32:06;;;;;;;84.00;31.02;;;;;;;-2.35;90.32;97563.97;2567128;28;20149;-70
2021/12/08 00:33:22;;;;;;;82.15;31.20;;;;;;;-2.36;90.65;97562.25;2567115;28;20413;-71
2021/12/08 00:34:38;;;;;;;79.18;30.55;;;;;;;-2.39;90.50;97557.94;2567189;28;20403;-71
2021/12/08 00:35:55;;;;;;;68.45;27.33;;;;;;;-2.44;90.49;97555.34;2567143;28;20050;-71
2021/12/08 00:37:11;;;;;;;59.03;23.90;;;;;;;-2.48;90.22;97555.28;2567102;28;20516;-71
2021/12/08 00:38:27;;;;;;;56.10;23.60;;;;;;;-2.50;90.54;97560.41;2566986;28;20078;-70
2021/12/08 00:39:43;;;;;;;58.95;23.15;;;;;;;-2.60;90.02;97562.00;2567011;28;20058;-71
2021/12/08 00:40:59;;;;;;;52.05;23.15;;;;;;;-2.60;90.41;97550.91;2566868;28;20055;-71
2021/12/08 00:42:14;;;;;;;43.55;20.58;;;;;;;-2.59;90.46;97550.06;2567345;28;20054;-73
2021/12/08 00:43:30;;;;;;;39.97;17.48;;;;;;;-2.57;90.75;97558.63;2567127;28;20058;-71
2021/12/08 00:44:46;;;;;;;35.30;15.32;;;;;;;-2.57;90.99;97556.06;2567174;28;20817;-71
2021/12/08 00:46:02;;;;;;;31.40;14.23;;;;;;;-2.60;90.72;97558.59;2566930;28;20046;-71
2021/12/08 00:47:18;;;;;;;32.72;14.00;;;;;;;-2.66;90.71;97553.41;2567308;28;20047;-71
2021/12/08 00:48:35;;;;;;;34.17;14.25;;;;;;;-2.67;91.19;97554.25;2568038;28;20124;-71
2021/12/08 00:49:51;;;;;;;30.67;13.50;;;;;;;-2.68;91.19;97548.28;2568870;28;20398;-71
2021/12/08 00:51:06;;;;;;;31.88;13.73;;;;;;;-2.68;91.28;97553.41;2569067;28;20097;-71
2021/12/08 00:52:27;;;;;;;30.98;13.00;;;;;;;-2.65;91.46;97550.84;2569223;28;20509;-71
2021/12/08 00:53:42;;;;;;;32.00;13.50;;;;;;;-2.64;91.43;97550.00;2569310;28;20520;-71
2021/12/08 00:55:00;;;;;;;32.22;14.27;;;;;;;-2.65;91.40;97555.16;2569075;28;20059;-71
2021/12/08 00:56:15;;;;;;;33.55;13.80;;;;;;;-2.66;91.72;97545.72;2569044;28;20102;-71
2021/12/08 00:57:31;;;;;;;28.48;12.88;;;;;;;-2.67;91.40;97551.69;2569044;28;20442;-71
2021/12/08 00:58:46;;;;;;;30.60;14.23;;;;;;;-2.71;91.54;97549.09;2569225;28;20509;-70
2021/12/08 01:00:07;;;;;;;30.80;14.13;;;;;;;-2.73;91.51;97550.78;2568677;28;20124;-71
2021/12/08 01:01:22;;;;;;;32.13;14.13;;;;;;;-2.72;91.21;97555.06;2569119;28;20482;-71
2021/12/08 01:02:39;;;;;;;28.45;13.13;;;;;;;-2.72;91.33;97554.22;2569195;28;20113;-71
2021/12/08 01:03:54;;;;;;;30.05;13.90;;;;;;;-2.73;91.23;97555.03;2569043;28;20062;-71
2021/12/08 01:05:13;;;;;;;30.95;13.23;;;;;;;-2.73;90.91;97561.03;2568620;28;20146;-71
2021/12/08 01:06:29;;;;;;;28.58;12.77;;;;;;;-2.76;90.91;97555.88;2568739;28;20053;-71
2021/12/08 01:07:45;;;;;;;53.80;20.27;;;;;;;-2.80;90.69;97546.41;2569040;28;20069;-71
2021/12/08 01:09:01;;;;;;;82.65;29.65;;;;;;;-2.77;90.87;97555.84;2568592;28;20058;-71
2021/12/08 01:10:21;;;;;;;102.32;32.63;;;;;;;-2.78;90.61;97557.56;2568801;28;20085;-71
2021/12/08 01:11:36;;;;;;;68.75;28.88;;;;;;;-2.77;90.31;97560.97;2568872;28;20050;-71
2021/12/08 01:12:53;;;;;;;96.53;34.20;;;;;;;-2.84;90.29;97555.78;2568969;28;20085;-71
2021/12/08 01:14:09;;;;;;;92.57;30.95;;;;;;;-2.92;89.97;97551.44;2569029;28;20043;-71
2021/12/08 01:15:27;;;;;;;64.72;28.42;;;;;;;-2.95;90.09;97546.25;2568861;28;20051;-71
2021/12/08 01:16:43;;;;;;;62.47;26.27;;;;;;;-2.96;90.50;97539.41;2569021;28;20047;-71
2021/12/08 01:17:58;;;;;;;43.38;19.25;;;;;;;-2.97;91.08;97530.88;2568990;28;20554;-71
2021/12/08 01:19:14;;;;;;;33.67;15.02;;;;;;;-2.98;91.48;97532.56;2568937;28;20047;-71
2021/12/08 01:20:30;;;;;;;32.78;15.10;;;;;;;-2.98;91.33;97524.06;2568364;28;20498;-71
2021/12/08 01:21:46;;;;;;;33.63;15.68;;;;;;;-2.94;91.32;97524.91;2568850;28;20047;-71
2021/12/08 01:23:02;;;;;;;38.13;17.50;;;;;;;-2.90;91.45;97519.00;2568835;28;20085;-71
2021/12/08 01:24:18;;;;;;;44.67;19.48;;;;;;;-2.87;91.47;97516.47;2568613;28;20043;-71
2021/12/08 01:25:34;;;;;;;49.15;19.88;;;;;;;-2.80;91.75;97514.84;2568624;28;20520;-71
2021/12/08 01:26:50;;;;;;;52.58;22.42;;;;;;;-2.75;91.67;97505.47;2568813;28;20047;-71
2021/12/08 01:28:06;;;;;;;49.13;19.48;;;;;;;-2.65;92.03;97506.47;2568823;28;20053;-70
2021/12/08 01:29:22;;;;;;;46.95;19.67;;;;;;;-2.60;92.12;97502.22;2568872;28;20076;-70
2021/12/08 01:30:38;;;;;;;37.42;16.15;;;;;;;-2.61;92.40;97497.94;2568597;28;20113;-71
2021/12/08 01:31:53;;;;;;;44.50;17.88;;;;;;;-2.61;92.17;97498.78;2568768;28;20062;-71
2021/12/08 01:33:09;;;;;;;44.97;17.48;;;;;;;-2.60;92.28;97507.34;2568458;28;20482;-71
2021/12/08 01:34:25;;;;;;;50.63;18.48;;;;;;;-2.59;92.48;97503.94;2568628;28;20095;-71
2021/12/08 01:35:40;;;;;;;48.30;18.17;;;;;;;-2.59;92.62;97501.38;2568570;28;20051;-71
2021/12/08 01:36:56;;;;;;;48.05;17.90;;;;;;;-2.58;92.62;97503.09;2568761;28;20051;-71
2021/12/08 01:38:12;;;;;;;56.15;19.90;;;;;;;-2.58;92.45;97493.72;2568651;28;20047;-71
2021/12/08 01:39:28;;;;;;;56.75;19.00;;;;;;;-2.56;92.64;97499.72;2568709;28;20047;-71
2021/12/08 01:40:44;;;;;;;53.95;18.67;;;;;;;-2.57;92.35;97492.00;2568262;28;20118;-71
2021/12/08 01:41:59;;;;;;;46.13;18.08;;;;;;;-2.60;92.33;97492.81;2568493;28;20173;-71
2021/12/08 01:43:27;;;;;;;44.30;16.75;;;;;;;-2.62;92.36;97491.09;2568606;28;20441;-71
2021/12/08 01:46:22;;;;;;;41.47;15.30;;;;;;;-2.59;92.77;97480.88;2568592;28;20061;-71
2021/12/08 01:47:37;;;;;;;47.17;16.98;;;;;;;-2.59;92.69;97479.16;2568610;28;20047;-71
2021/12/08 01:48:53;;;;;;;44.35;17.63;;;;;;;-2.60;92.67;97477.44;2568461;28;20074;-71
2021/12/08 01:50:10;;;;;;;44.60;15.23;;;;;;;-2.61;92.77;97472.31;2568438;28;20555;-71
2021/12/08 01:51:26;;;;;;;50.85;17.77;;;;;;;-2.65;92.44;97475.72;2568257;28;20391;-71
2021/12/08 01:52:41;;;;;;;60.95;18.95;;;;;;;-2.67;92.56;97469.69;2568536;28;20101;-71
2021/12/08 01:54:01;;;;;;;43.55;16.58;;;;;;;-2.67;92.78;97473.13;2568538;28;20142;-71
2021/12/08 01:55:17;;;;;;;38.97;14.05;;;;;;;-2.66;92.79;97466.28;2568547;28;20300;-71
2021/12/08 01:56:35;;;;;;;52.13;17.15;;;;;;;-2.67;92.89;97464.56;2568490;28;20086;-71
2021/12/08 01:57:50;;;;;;;45.47;16.35;;;;;;;-2.66;92.90;97464.59;2568646;28;20043;-71
2021/12/08 01:59:09;;;;;;;61.63;19.30;;;;;;;-2.68;93.02;97463.72;2568515;28;21162;-71
2021/12/08 02:00:32;;;;;;;50.35;17.05;;;;;;;-2.71;92.90;97461.97;2567346;28;20051;-70
2021/12/08 02:01:49;;;;;;;47.83;17.75;;;;;;;-2.73;92.56;97461.09;2568603;28;20093;-71
2021/12/08 02:03:05;;;;;;;51.13;19.55;;;;;;;-2.78;92.61;97452.53;2568363;28;20405;-71
2021/12/08 02:04:21;;;;;;;47.65;17.10;;;;;;;-2.79;92.70;97458.50;2568232;28;20428;-71
2021/12/08 02:05:38;;;;;;;45.85;17.17;;;;;;;-2.79;92.43;97452.50;2568434;28;20074;-71
2021/12/08 02:06:53;;;;;;;46.50;17.00;;;;;;;-2.85;92.45;97445.63;2568495;28;20054;-71
2021/12/08 02:08:09;;;;;;;40.03;16.15;;;;;;;-2.88;92.51;97446.44;2568206;28;20063;-71
2021/12/08 02:09:25;;;;;;;37.28;16.98;;;;;;;-2.88;92.25;97445.59;2568524;28;20592;-71
2021/12/08 02:10:41;;;;;;;43.17;16.48;;;;;;;-2.88;92.34;97441.31;2568064;28;20055;-70
2021/12/08 02:11:57;;;;;;;44.53;17.50;;;;;;;-2.88;92.50;97443.03;2568322;28;20050;-71
2021/12/08 02:13:13;;;;;;;44.42;17.50;;;;;;;-2.91;92.35;97437.91;2568054;28;20050;-71
2021/12/08 02:14:29;;;;;;;41.15;17.70;;;;;;;-2.92;92.55;97433.63;2568374;28;20051;-71
2021/12/08 02:15:46;;;;;;;44.97;17.60;;;;;;;-2.95;92.36;97436.13;2568385;28;20142;-71
2021/12/08 02:17:02;;;;;;;40.70;17.23;;;;;;;-2.93;92.11;97437.88;2568214;28;20086;-71
2021/12/08 02:18:18;;;;;;;34.67;15.00;;;;;;;-2.97;92.32;97438.69;2568391;28;20078;-71
2021/12/08 02:19:33;;;;;;;40.60;16.23;;;;;;;-2.99;92.02;97433.53;2568389;28;20588;-71
2021/12/08 02:20:50;;;;;;;33.92;14.93;;;;;;;-3.02;92.26;97428.41;2567918;28;20066;-71
2021/12/08 02:22:06;;;;;;;34.33;14.80;;;;;;;-3.05;92.29;97433.50;2568276;28;20843;-71
2021/12/08 02:23:21;;;;;;;37.22;15.85;;;;;;;-3.06;91.94;97434.34;2568039;28;20058;-71
2021/12/08 02:24:37;;;;;;;36.88;15.90;;;;;;;-3.07;92.40;97439.44;2568357;28;20054;-71
2021/12/08 02:25:52;;;;;;;36.38;15.60;;;;;;;-3.11;92.18;97428.28;2568317;28;20053;-70
2021/12/08 02:27:08;;;;;;;35.05;14.55;;;;;;;-3.13;92.20;97424.88;2568131;28;20391;-70
2021/12/08 02:28:24;;;;;;;35.60;14.80;;;;;;;-3.17;92.08;97420.56;2568214;28;20061;-71
2021/12/08 02:29:53;;;;;;;29.25;14.63;;;;;;;-3.17;91.82;97426.53;2567611;28;20051;-71
2021/12/08 02:31:12;;;;;;;29.02;13.18;;;;;;;-3.17;91.82;97420.56;2568298;28;20058;-71
2021/12/08 02:46:38;;;;;;;30.80;13.82;;;;;;;-3.20;91.66;97412.88;2568170;28;20145;-71
2021/12/08 02:47:05;;;;;;;30.02;13.52;;;;;;;-3.36;91.36;97402.44;2568007;28;20047;-71
2021/12/08 02:48:20;;;;;;;34.65;14.82;;;;;;;-3.36;91.31;97404.16;2568143;28;20470;-71
2021/12/08 02:49:38;;;;;;;31.20;14.60;;;;;;;-3.43;91.18;97400.66;2567954;28;20050;-71
2021/12/08 02:50:55;;;;;;;33.03;13.88;;;;;;;-3.45;91.22;97399.81;2567903;28;20592;-71
2021/12/08 02:52:13;;;;;;;37.13;14.35;;;;;;;-3.48;91.37;97390.38;2567891;28;20047;-71
2021/12/08 02:53:32;;;;;;;30.30;14.07;;;;;;;-3.47;91.43;97396.38;2568012;28;20050;-71
2021/12/08 02:54:51;;;;;;;28.63;12.95;;;;;;;-3.51;91.44;97400.59;2568041;28;20564;-71
2021/12/08 02:56:06;;;;;;;31.27;13.57;;;;;;;-3.53;91.34;97399.72;2567769;28;20047;-71
2021/12/08 02:57:26;;;;;;;31.20;12.90;;;;;;;-3.48;91.56;97392.09;2567559;28;20058;-71
2021/12/08 02:58:42;;;;;;;31.90;14.15;;;;;;;-3.49;91.34;97388.66;2567724;28;20059;-71
2021/12/08 02:59:58;;;;;;;31.95;13.40;;;;;;;-3.45;91.46;97384.44;2567612;28;20046;-71
2021/12/08 03:01:14;;;;;;;28.23;13.10;;;;;;;-3.45;91.05;97385.28;2567746;28;20051;-71
2021/12/08 03:02:30;;;;;;;33.22;13.98;;;;;;;-3.45;91.62;97381.88;2567808;28;20046;-71
2021/12/08 03:03:46;;;;;;;27.90;12.95;;;;;;;-3.45;91.40;97384.44;2567733;28;20065;-71
2021/12/08 03:05:03;;;;;;;30.80;13.60;;;;;;;-3.42;91.23;97384.47;2567990;28;20422;-71
2021/12/08 03:06:20;;;;;;;26.38;12.45;;;;;;;-3.37;91.35;97387.09;2567575;28;20050;-71
2021/12/08 03:07:37;;;;;;;29.65;13.35;;;;;;;-3.38;91.33;97382.81;2568024;28;20047;-71
2021/12/08 03:08:53;;;;;;;29.55;13.55;;;;;;;-3.37;91.15;97380.25;2567679;28;20053;-71
2021/12/08 03:10:13;;;;;;;30.25;12.93;;;;;;;-3.34;91.35;97374.31;2567410;28;20061;-71
2021/12/08 03:11:29;;;;;;;27.00;12.13;;;;;;;-3.32;91.32;97373.50;2567780;28;20050;-71
2021/12/08 03:12:45;;;;;;;27.58;12.82;;;;;;;-3.32;91.29;97373.50;2567646;28;20101;-75
2021/12/08 03:14:06;;;;;;;28.58;13.27;;;;;;;-3.30;91.15;97376.91;2567579;28;20190;-71
2021/12/08 03:15:21;;;;;;;27.17;12.07;;;;;;;-3.33;91.19;97371.78;2567818;28;20061;-71
2021/12/08 03:16:42;;;;;;;28.30;13.15;;;;;;;-3.35;90.72;97367.47;2567946;28;20070;-71
2021/12/08 03:17:58;;;;;;;28.25;12.73;;;;;;;-3.36;90.99;97371.72;2567658;28;20042;-71
2021/12/08 03:19:14;;;;;;;32.88;13.10;;;;;;;-3.36;91.12;97370.88;2567638;28;20490;-71
2021/12/08 03:20:41;;;;;;;26.90;12.43;;;;;;;-3.35;91.03;97370.91;2567241;28;20051;-71
2021/12/08 03:21:57;;;;;;;30.50;12.00;;;;;;;-3.35;91.18;97365.78;2567843;28;20086;-71
2021/12/08 03:23:21;;;;;;;32.17;11.77;;;;;;;-3.21;92.03;97370.16;2567720;28;20049;-71
2021/12/08 03:24:40;;;;;;;36.95;13.98;;;;;;;-3.22;92.06;97363.31;2567589;28;20062;-71
2021/12/08 03:25:58;;;;;;;41.88;15.90;;;;;;;-3.23;91.95;97361.59;2567617;28;20086;-71
2021/12/08 03:27:19;;;;;;;37.58;15.77;;;;;;;-3.20;91.89;97357.38;2567743;28;20109;-71
2021/12/08 03:28:41;;;;;;;34.90;14.10;;;;;;;-3.11;92.07;97348.91;2567596;28;20138;-71
2021/12/08 03:30:00;;;;;;;36.65;15.00;;;;;;;-3.04;92.25;97348.16;2567757;28;20101;-71
2021/12/08 03:31:19;;;;;;;37.03;14.25;;;;;;;-3.01;92.16;97343.03;2567552;28;20051;-71
2021/12/08 03:32:38;;;;;;;43.67;15.13;;;;;;;-2.93;92.09;97343.09;2567750;28;20050;-71
2021/12/08 03:33:54;;;;;;;38.78;15.00;;;;;;;-2.81;92.32;97341.50;2567657;28;20066;-70
2021/12/08 03:35:13;;;;;;;40.00;15.77;;;;;;;-2.82;92.15;97343.19;2567362;28;20049;-71
2021/12/08 03:36:29;;;;;;;40.65;15.30;;;;;;;-2.87;92.22;97335.44;2567710;28;20146;-70
2021/12/08 03:37:46;;;;;;;35.35;15.98;;;;;;;-2.88;91.93;97330.34;2567477;28;20055;-70
2021/12/08 03:39:04;;;;;;;37.42;15.02;;;;;;;-2.87;92.07;97330.34;2567229;28;20057;-70
2021/12/08 03:40:23;;;;;;;34.28;13.23;;;;;;;-2.83;92.12;97328.66;2567031;28;20051;-70
2021/12/08 03:41:39;;;;;;;38.60;16.15;;;;;;;-2.78;91.74;97331.25;2567081;28;20509;-70
2021/12/08 03:42:57;;;;;;;30.38;14.02;;;;;;;-2.78;91.98;97334.69;2567401;28;20055;-70
2021/12/08 03:44:14;;;;;;;32.17;13.40;;;;;;;-2.80;91.73;97341.47;2567356;28;20053;-71
2021/12/08 03:45:37;;;;;;;31.20;12.52;;;;;;;-2.72;91.70;97342.41;2567464;28;20069;-70
2021/12/08 03:47:00;;;;;;;36.40;14.30;;;;;;;-2.71;91.67;97341.56;2567495;28;20054;-70
2021/12/08 03:48:30;;;;;;;29.92;13.45;;;;;;;-2.67;91.92;97342.44;2567419;28;20093;-70
2021/12/08 03:49:48;;;;;;;32.72;13.15;;;;;;;-2.61;91.84;97341.63;2567384;28;20482;-70
2021/12/08 03:51:03;;;;;;;30.13;11.90;;;;;;;-2.56;91.71;97337.38;2567263;28;20481;-70
2021/12/08 03:52:19;;;;;;;32.13;13.23;;;;;;;-2.41;91.58;97340.03;2567141;28;20136;-70
2021/12/08 03:53:35;;;;;;;32.47;13.40;;;;;;;-2.37;91.49;97356.28;2567486;28;20525;-70
2021/12/08 03:54:51;;;;;;;33.35;13.82;;;;;;;-2.36;91.38;97358.00;2567326;28;20055;-70
2021/12/08 03:56:07;;;;;;;30.00;13.95;;;;;;;-2.31;91.31;97363.16;2566654;28;20085;-70
2021/12/08 03:57:23;;;;;;;38.28;14.50;;;;;;;-2.24;90.88;97356.38;2567279;28;20137;-70
2021/12/08 03:58:39;;;;;;;39.45;15.48;;;;;;;-2.30;90.48;97358.06;2567364;28;20138;-70
2021/12/08 03:59:54;;;;;;;34.45;15.32;;;;;;;-2.32;90.67;97370.00;2567261;28;20058;-70
2021/12/08 04:01:10;;;;;;;37.10;15.75;;;;;;;-2.34;90.69;97363.16;2565557;28;20047;-70
2021/12/08 04:02:26;;;;;;;37.78;15.15;;;;;;;-2.38;91.04;97366.53;2567632;28;20054;-70
2021/12/08 04:03:49;;;;;;;33.90;14.88;;;;;;;-2.39;91.09;97370.81;2567510;28;20082;-72
2021/12/08 04:05:04;;;;;;;;;;;;;;;-2.40;91.20;97369.09;2566968;28;20146;-70
2021/12/08 04:06:31;;;;;;;32.92;12.30;;;;;;;-2.36;91.41;97375.13;2566351;28;19926;-70
2021/12/08 04:07:48;;;;;;;27.83;12.45;;;;;;;-2.34;91.23;97374.25;2566756;28;20078;-71
2021/12/08 04:09:12;;;;;;;29.50;13.38;;;;;;;-2.30;91.44;97372.56;2567308;28;20042;-70
2021/12/08 04:10:29;;;;;;;30.05;13.43;;;;;;;-2.29;91.52;97366.59;2567353;28;20149;-71
2021/12/08 04:11:46;;;;;;;36.95;14.73;;;;;;;-2.22;91.51;97365.81;2567264;28;20074;-71
2021/12/08 04:13:01;;;;;;;31.05;13.27;;;;;;;-2.21;91.57;97366.63;2567134;28;20058;-71
2021/12/08 04:14:21;;;;;;;29.13;12.48;;;;;;;-2.18;91.46;97362.41;2567367;28;20647;-71
2021/12/08 04:15:36;;;;;;;29.67;13.05;;;;;;;-2.19;91.46;97360.69;2567128;28;20051;-70
2021/12/08 04:17:08;;;;;;;32.20;13.65;;;;;;;-2.18;91.43;97351.25;2567407;28;20482;-70
2021/12/08 04:18:25;;;;;;;31.75;13.27;;;;;;;-2.19;91.44;97349.56;2567411;28;20486;-70
2021/12/08 04:19:42;;;;;;;25.45;12.15;;;;;;;-2.18;91.21;97347.00;2567069;28;20097;-70
2021/12/08 04:20:58;;;;;;;29.98;12.00;;;;;;;-2.17;91.28;97346.16;2567214;28;20051;-70
2021/12/08 04:22:20;;;;;;;30.35;12.43;;;;;;;-2.18;91.10;97346.13;2565836;28;20057;-70
2021/12/08 04:23:38;;;;;;;31.97;13.23;;;;;;;-2.20;91.21;97341.00;2566561;28;20556;-70
2021/12/08 04:24:55;;;;;;;27.50;12.50;;;;;;;-2.21;91.38;97343.56;2567006;28;20477;-70
2021/12/08 04:26:30;;;;;;;25.02;11.32;;;;;;;-2.24;91.22;97335.84;2565919;28;20047;-70
2021/12/08 04:27:48;;;;;;;20.42;9.35;;;;;;;-2.14;91.01;97340.19;2565587;28;20057;-70
2021/12/08 04:29:08;;;;;;;23.65;10.63;;;;;;;-2.15;90.46;97329.06;2565878;28;20042;-70
2021/12/08 04:30:33;;;;;;;23.33;10.32;;;;;;;-2.15;90.29;97334.19;2566888;28;20063;-71
2021/12/08 04:31:50;;;;;;;24.02;10.40;;;;;;;-2.17;90.55;97337.59;2566275;28;20101;-70
2021/12/08 04:33:07;;;;;;;25.35;11.07;;;;;;;-2.20;90.46;97343.59;2566521;28;20495;-70
2021/12/08 04:34:30;;;;;;;25.67;11.40;;;;;;;-2.20;90.62;97343.59;2566886;28;20139;-71
2021/12/08 04:35:48;;;;;;;23.58;9.55;;;;;;;-2.15;90.68;97341.88;2565733;28;20055;-70
2021/12/08 04:37:16;;;;;;;28.58;11.43;;;;;;;-2.15;90.92;97341.88;2565831;28;20047;-70
2021/12/08 04:38:38;;;;;;;27.17;11.10;;;;;;;-2.13;90.95;97347.88;2566624;28;20466;-70
2021/12/08 04:41:48;;;;;;;21.25;9.55;;;;;;;-2.06;91.23;97345.34;2566183;28;20063;-70
2021/12/08 04:43:16;;;;;;;23.73;11.23;;;;;;;-2.05;90.71;97349.63;2565804;28;20070;-70
2021/12/08 04:44:40;;;;;;;22.58;10.07;;;;;;;-2.05;90.81;97340.22;2566047;28;20517;-70
2021/12/08 04:46:17;;;;;;;22.88;10.25;;;;;;;-2.06;90.85;97346.19;2566026;28;20074;-72
2021/12/08 04:47:35;;;;;;;19.55;8.85;;;;;;;-2.05;90.57;97347.06;2565969;28;20051;-70
2021/12/08 05:01:25;;;;;;;24.98;9.90;;;;;;;-1.94;89.96;97339.41;2566072;28;20082;-72
2021/12/08 05:03:16;;;;;;;19.83;9.60;;;;;;;-1.98;89.60;97341.09;2566400;28;20054;-72
2021/12/08 05:08:10;;;;;;;24.02;10.32;;;;;;;-2.01;89.39;97341.09;2566549;28;20054;-71
2021/12/08 05:09:27;;;;;;;21.55;8.95;;;;;;;-2.03;89.16;97345.38;2561533;28;20545;-71
2021/12/08 05:10:45;;;;;;;23.45;8.95;;;;;;;-2.06;89.33;97345.34;2566475;28;20054;-71
2021/12/08 05:12:14;;;;;;;16.70;7.30;;;;;;;-2.09;88.99;97346.19;2566904;28;20154;-71
2021/12/08 05:13:30;;;;;;;21.67;8.95;;;;;;;-2.13;89.17;97344.47;2567211;28;20081;-71
2021/12/08 05:14:49;;;;;;;22.23;10.00;;;;;;;-2.13;88.68;97347.88;2567053;28;20049;-71
2021/12/08 05:16:05;;;;;;;23.15;9.27;;;;;;;-2.16;88.63;97349.59;2566858;28;20065;-71
2021/12/08 05:17:36;;;;;;;24.77;10.75;;;;;;;-2.10;88.17;97359.00;2566990;28;20046;-71
2021/12/08 05:18:54;;;;;;;22.98;9.40;;;;;;;-2.16;88.14;97350.44;2566401;28;20050;-71
2021/12/08 05:20:18;;;;;;;22.33;9.50;;;;;;;-2.22;88.45;97347.84;2566369;28;20439;-71
2021/12/08 05:21:39;;;;;;;22.58;9.98;;;;;;;-2.25;88.63;97344.41;2565849;28;20770;-71
2021/12/08 05:22:58;;;;;;;23.52;10.07;;;;;;;-2.19;88.56;97344.41;2566560;28;20930;-71
2021/12/08 05:24:19;;;;;;;26.77;10.45;;;;;;;-2.24;88.67;97344.38;2567035;28;20121;-71
2021/12/08 05:25:37;;;;;;;21.83;10.18;;;;;;;-2.27;88.51;97345.25;2566731;28;20054;-71
2021/12/08 05:27:02;;;;;;;22.42;9.38;;;;;;;-2.31;88.34;97347.78;2566969;28;20089;-71
2021/12/08 05:28:21;;;;;;;20.50;8.32;;;;;;;-2.30;88.34;97349.50;2566837;28;20047;-71
2021/12/08 05:29:43;;;;;;;20.95;9.45;;;;;;;-2.35;88.34;97364.00;2566716;28;20489;-71
2021/12/08 05:31:04;;;;;;;22.10;9.05;;;;;;;-2.37;88.29;97358.84;2566768;28;20085;-71
2021/12/08 05:32:21;;;;;;;23.08;9.82;;;;;;;-2.36;88.14;97358.00;2566952;28;20043;-70
2021/12/08 05:33:40;;;;;;;18.77;8.82;;;;;;;-2.38;88.19;97363.97;2566635;28;20086;-70
2021/12/08 05:34:56;;;;;;;24.13;9.68;;;;;;;-2.37;88.07;97358.03;2566872;28;20071;-71
2021/12/08 05:36:13;;;;;;;22.52;9.90;;;;;;;-2.42;88.22;97358.81;2568520;28;20059;-71
2021/12/08 05:37:29;;;;;;;22.13;9.23;;;;;;;-2.41;88.00;97355.41;2568453;28;20058;-71
2021/12/08 05:38:45;;;;;;;25.25;9.60;;;;;;;-2.45;88.12;97355.38;2568763;28;20485;-70
2021/12/08 05:40:03;;;;;;;24.40;10.95;;;;;;;-2.49;88.07;97356.22;2568841;28;20129;-71
2021/12/08 05:41:28;;;;;;;22.25;9.75;;;;;;;-2.52;88.41;97356.22;2568120;28;20074;-71
2021/12/08 05:42:45;;;;;;;19.25;8.25;;;;;;;-2.52;88.63;97349.34;2568658;28;20082;-71
2021/12/08 05:44:02;;;;;;;25.02;10.73;;;;;;;-2.50;88.60;97350.25;2567998;28;20051;-71
2021/12/08 05:45:21;;;;;;;23.98;10.10;;;;;;;-2.51;88.64;97347.66;2568345;28;20194;-71
2021/12/08 05:46:42;;;;;;;22.00;9.30;;;;;;;-2.50;88.50;97349.38;2568595;28;20524;-71
2021/12/08 05:47:58;;;;;;;25.00;10.15;;;;;;;-2.48;88.42;97353.69;2568367;28;20050;-71
2021/12/08 05:49:16;;;;;;;22.08;9.27;;;;;;;-2.51;88.36;97348.53;2568715;28;20482;-71
2021/12/08 05:50:43;;;;;;;23.13;8.95;;;;;;;-2.51;88.16;97353.66;2568374;28;20051;-71
2021/12/08 05:51:59;;;;;;;24.42;9.65;;;;;;;-2.54;88.23;97363.88;2568481;28;20047;-71
2021/12/08 05:53:15;;;;;;;24.77;9.32;;;;;;;-2.58;88.17;97364.72;2567972;28;20086;-71
2021/12/08 05:54:34;;;;;;;23.42;10.27;;;;;;;-2.61;88.23;97365.53;2568424;28;20058;-71
2021/12/08 05:55:50;;;;;;;22.95;9.20;;;;;;;-2.62;88.57;97366.38;2568529;28;20121;-71
2021/12/08 05:57:18;;;;;;;25.27;9.25;;;;;;;-2.63;88.21;97363.84;2568480;28;20043;-71
2021/12/08 05:58:35;;;;;;;22.35;9.32;;;;;;;-2.66;88.20;97364.66;2568618;28;20074;-71
2021/12/08 05:59:51;;;;;;;21.33;9.60;;;;;;;-2.62;88.42;97370.66;2568821;28;20097;-71
2021/12/08 06:01:16;;;;;;;24.20;9.85;;;;;;;-2.66;88.56;97368.91;2567808;28;20042;-71
2021/12/08 06:02:35;;;;;;;23.67;10.52;;;;;;;-2.66;88.21;97374.03;2568460;28;20069;-71
2021/12/08 06:03:51;;;;;;;23.08;10.25;;;;;;;-2.67;88.10;97373.19;2568419;28;20059;-71
2021/12/08 06:05:09;;;;;;;23.33;10.23;;;;;;;-2.67;88.02;97374.88;2568637;28;20047;-71
2021/12/08 06:06:26;;;;;;;21.38;9.25;;;;;;;-2.63;88.21;97369.78;2568193;28;20054;-70
2021/12/08 06:07:42;;;;;;;20.95;8.52;;;;;;;-2.64;88.13;97370.66;2568229;28;20129;-71
2021/12/08 06:08:59;;;;;;;23.67;8.73;;;;;;;-2.67;88.17;97370.63;2568258;28;20059;-71
2021/12/08 06:10:20;;;;;;;21.27;8.73;;;;;;;-2.69;87.99;97374.88;2568347;28;20043;-71
2021/12/08 06:11:36;;;;;;;22.23;8.52;;;;;;;-2.71;88.14;97374.03;2568450;28;20054;-71
2021/12/08 06:12:52;;;;;;;21.77;9.85;;;;;;;-2.74;88.29;97373.97;2568462;28;20061;-71
2021/12/08 06:14:09;;;;;;;21.63;8.60;;;;;;;-2.76;88.46;97381.66;2568421;28;20082;-71
2021/12/08 06:15:25;;;;;;;21.15;8.63;;;;;;;-2.74;88.28;97372.28;2568247;28;20417;-71
2021/12/08 06:16:44;;;;;;;23.27;9.70;;;;;;;-2.74;88.30;97368.84;2568170;28;20047;-71
2021/12/08 06:18:00;;;;;;;23.92;10.18;;;;;;;-2.80;87.86;97367.09;2568455;28;20474;-70
2021/12/08 06:19:19;;;;;;;22.35;8.75;;;;;;;-2.82;88.36;97373.91;2568126;28;20050;-71
2021/12/08 06:20:35;;;;;;;21.92;8.40;;;;;;;-2.81;88.40;97367.94;2567867;28;20050;-71
2021/12/08 06:21:51;;;;;;;23.45;9.77;;;;;;;-2.83;88.38;97361.97;2568154;28;20054;-71
2021/12/08 06:23:08;;;;;;;22.13;9.48;;;;;;;-2.84;88.04;97373.06;2568393;28;20107;-71
2021/12/08 06:24:24;;;;;;;22.08;10.27;;;;;;;-2.86;88.05;97367.06;2568286;28;20098;-71
2021/12/08 06:25:40;;;;;;;23.50;10.73;;;;;;;-2.84;88.32;97370.50;2568038;28;20058;-71
2021/12/08 06:26:56;;;;;;;26.00;9.23;;;;;;;-2.87;88.05;97366.19;2568319;28;20049;-71
2021/12/08 06:28:11;;;;;;;25.40;10.48;;;;;;;-2.86;88.13;97372.19;2568177;28;20055;-71
2021/12/08 06:29:28;;;;;;;24.40;10.23;;;;;;;-2.87;88.16;97370.47;2568398;28;20062;-71
2021/12/08 06:30:45;;;;;;;22.08;9.00;;;;;;;-2.87;88.28;97380.72;2567611;28;20540;-71
2021/12/08 06:32:04;;;;;;;26.70;10.75;;;;;;;-2.90;88.31;97373.84;2557441;29;20048;-71
2021/12/08 06:33:20;;;;;;;22.35;9.82;;;;;;;-2.89;88.13;97377.28;2562364;28;20046;-71
2021/12/08 06:34:38;;;;;;;23.58;10.00;;;;;;;-2.87;88.45;97375.59;2568039;28;20700;-71
2021/12/08 06:36:02;;;;;;;24.35;9.68;;;;;;;-2.84;88.14;97380.75;2568217;28;20077;-71
2021/12/08 06:37:23;;;;;;;26.80;10.48;;;;;;;-2.80;88.04;97372.22;2568003;28;20046;-71